Time;durP1;ratioP1;P1;durP2;ratioP2;P2;SDS_P1;SDS_P2;PMS_P1;PMS_P2;Temp;Humidity;BMP_temperature;BMP_pressure;BME280_temperature;BME280_humidity;BME280_pressure;Samples;Min_cycle;Max_cycle;Signal;HPM_P1;HPM_P2
2024/01/22 00:01:58;;;;;;;7.35;4.03;;;4.80;99.90;;;;;;10058603;28;20036;-64
2024/01/22 00:06:52;;;;;;;6.07;3.03;;;4.70;99.90;;;;;;10057802;28;20037;-65
2024/01/22 00:11:42;;;;;;;7.20;2.95;;;4.70;99.90;;;;;;10058376;28;20424;-66
2024/01/22 00:16:38;;;;;;;4.13;2.85;;;4.70;99.90;;;;;;10058100;28;20453;-65
2024/01/22 00:21:30;;;;;;;6.90;2.97;;;4.70;99.90;;;;;;10058118;28;20172;-65
2024/01/22 00:26:20;;;;;;;4.50;3.22;;;4.70;99.90;;;;;;10055181;28;20056;-65
2024/01/22 00:31:11;;;;;;;7.40;3.22;;;4.70;99.90;;;;;;10057121;28;20033;-65
2024/01/22 00:36:03;;;;;;;6.00;2.90;;;4.70;99.90;;;;;;10059299;28;20033;-66
2024/01/22 00:40:53;;;;;;;4.65;3.20;;;4.70;99.90;;;;;;10057144;28;20054;-65
2024/01/22 00:45:44;;;;;;;4.88;2.78;;;4.80;99.90;;;;;;10057171;28;20045;-64
2024/01/22 00:50:35;;;;;;;4.03;2.53;;;4.80;99.90;;;;;;10057595;28;20034;-65
2024/01/22 00:55:25;;;;;;;7.85;3.22;;;4.80;99.90;;;;;;10057439;28;20464;-65
2024/01/22 01:00:16;;;;;;;6.55;2.60;;;4.80;99.90;;;;;;10056612;28;20549;-65
2024/01/22 01:05:07;;;;;;;3.33;2.58;;;4.80;99.90;;;;;;10056524;28;20045;-65
2024/01/22 01:09:58;;;;;;;5.05;2.50;;;4.90;99.90;;;;;;10056039;28;20029;-64
2024/01/22 01:14:49;;;;;;;6.50;2.53;;;4.90;99.90;;;;;;10056220;28;20045;-65
2024/01/22 01:19:39;;;;;;;3.88;2.70;;;4.90;99.90;;;;;;10056017;28;20060;-65
2024/01/22 01:24:30;;;;;;;4.00;2.45;;;4.90;99.90;;;;;;10056214;28;20071;-65
2024/01/22 01:29:21;;;;;;;4.00;2.55;;;5.00;99.90;;;;;;10055712;28;20299;-64
2024/01/22 01:34:11;;;;;;;4.57;2.28;;;5.00;99.90;;;;;;10056284;28;20395;-64
2024/01/22 01:39:02;;;;;;;4.28;1.80;;;5.00;99.90;;;;;;10050903;28;20033;-64
2024/01/22 01:43:53;;;;;;;3.53;2.10;;;5.10;99.90;;;;;;10055206;28;20602;-65
2024/01/22 01:48:43;;;;;;;3.05;1.77;;;5.10;99.90;;;;;;10055002;28;20519;-66
2024/01/22 01:53:35;;;;;;;3.28;1.90;;;5.10;99.90;;;;;;10056263;28;20033;-65
2024/01/22 01:58:25;;;;;;;4.00;2.00;;;5.10;99.90;;;;;;10055368;28;20056;-64
2024/01/22 02:03:16;;;;;;;4.65;1.65;;;5.20;99.90;;;;;;10055171;28;20494;-65
2024/01/22 02:08:07;;;;;;;5.93;1.98;;;5.20;99.90;;;;;;10037226;28;20037;-65
2024/01/22 02:12:57;;;;;;;2.78;2.10;;;5.20;99.90;;;;;;10063082;28;20096;-65
2024/01/22 02:17:48;;;;;;;3.58;1.73;;;5.20;99.90;;;;;;10062655;28;20105;-64
2024/01/22 02:22:39;;;;;;;1.95;1.60;;;5.20;99.90;;;;;;10062460;28;20042;-64
2024/01/22 02:27:29;;;;;;;6.43;1.63;;;5.30;99.90;;;;;;10061799;28;20084;-64
2024/01/22 02:32:20;;;;;;;4.55;1.40;;;5.30;99.90;;;;;;10062610;28;20044;-64
2024/01/22 02:37:11;;;;;;;2.72;1.40;;;5.30;99.90;;;;;;10061710;28;20032;-65
2024/01/22 02:42:02;;;;;;;3.13;2.00;;;5.40;99.90;;;;;;10061882;28;20502;-65
2024/01/22 02:46:52;;;;;;;4.13;1.63;;;5.40;99.90;;;;;;10060148;28;20045;-65
2024/01/22 02:51:43;;;;;;;4.40;1.20;;;5.40;99.90;;;;;;10061392;28;20038;-65
2024/01/22 02:56:34;;;;;;;2.97;1.45;;;5.50;99.90;;;;;;10061859;28;20036;-65
2024/01/22 03:01:25;;;;;;;2.60;1.58;;;5.50;99.90;;;;;;10062255;28;20125;-64
2024/01/22 03:06:15;;;;;;;2.53;1.10;;;5.50;99.90;;;;;;10061099;28;20120;-64
2024/01/22 03:11:08;;;;;;;2.75;1.30;;;5.50;99.90;;;;;;10060995;28;20048;-65
2024/01/22 03:15:58;;;;;;;1.60;1.20;;;5.50;99.90;;;;;;10060962;28;20506;-65
2024/01/22 03:20:49;;;;;;;2.25;1.50;;;5.60;99.90;;;;;;10060579;28;20046;-66
2024/01/22 03:25:39;;;;;;;2.08;1.15;;;5.60;99.90;;;;;;10060467;28;20048;-65
2024/01/22 03:30:30;;;;;;;2.40;1.00;;;5.60;99.90;;;;;;10059822;28;20037;-66
2024/01/22 03:35:21;;;;;;;3.38;1.38;;;5.60;99.90;;;;;;10059930;28;20687;-63
2024/01/22 03:40:14;;;;;;;2.28;1.02;;;5.70;99.90;;;;;;10060640;28;20050;-64
2024/01/22 03:45:05;;;;;;;2.90;1.25;;;5.70;99.90;;;;;;10059527;28;20433;-64
2024/01/22 03:49:56;;;;;;;3.80;0.80;;;5.60;99.90;;;;;;10059007;28;20031;-65
2024/01/22 03:54:46;;;;;;;4.07;1.33;;;5.70;99.90;;;;;;10059117;28;20063;-65
2024/01/22 03:59:37;;;;;;;2.65;1.08;;;5.70;99.90;;;;;;10058932;28;20503;-65
2024/01/22 04:04:28;;;;;;;3.40;1.65;;;5.70;99.90;;;;;;10058538;28;20124;-64
2024/01/22 04:09:19;;;;;;;1.67;1.40;;;5.70;99.90;;;;;;10057073;28;20108;-65
2024/01/22 04:14:10;;;;;;;1.00;0.90;;;5.80;99.90;;;;;;10058314;28;20116;-64
2024/01/22 04:19:00;;;;;;;1.58;1.02;;;5.90;99.90;;;;;;10058111;28;20395;-64
2024/01/22 04:23:51;;;;;;;1.40;0.90;;;5.80;99.90;;;;;;10050185;28;20448;-64
2024/01/22 04:28:41;;;;;;;2.22;1.35;;;5.90;99.90;;;;;;10056790;28;20046;-65
2024/01/22 04:33:32;;;;;;;5.90;1.10;;;5.90;99.90;;;;;;10057463;28;20098;-64
2024/01/22 04:38:23;;;;;;;4.50;1.50;;;5.90;99.90;;;;;;10057022;28;20071;-64
2024/01/22 04:43:15;;;;;;;1.15;0.77;;;6.00;99.90;;;;;;10058291;28;20120;-64
2024/01/22 04:48:06;;;;;;;1.85;1.10;;;6.00;99.90;;;;;;10056730;28;20034;-64
2024/01/22 04:52:57;;;;;;;1.40;1.17;;;6.00;99.90;;;;;;10060037;28;20025;-64
2024/01/22 04:57:48;;;;;;;1.52;1.10;;;6.00;99.90;;;;;;10056469;28;20514;-65
2024/01/22 05:02:40;;;;;;;1.38;0.80;;;6.00;99.90;;;;;;10057316;28;20673;-65
2024/01/22 05:07:31;;;;;;;1.40;0.93;;;6.10;99.90;;;;;;10056214;28;20367;-63
2024/01/22 05:12:21;;;;;;;2.95;1.00;;;6.10;99.90;;;;;;10056434;28;20025;-64
2024/01/22 05:17:12;;;;;;;1.90;0.95;;;6.20;99.90;;;;;;10055811;28;20542;-64
2024/01/22 05:22:03;;;;;;;1.00;0.88;;;6.20;99.90;;;;;;10055974;28;20140;-64
2024/01/22 05:26:53;;;;;;;1.67;1.10;;;6.20;99.90;;;;;;10055832;28;20045;-64
2024/01/22 05:31:44;;;;;;;1.33;0.52;;;6.20;99.90;;;;;;10054235;28;20397;-64
2024/01/22 05:36:37;;;;;;;3.10;1.33;;;6.20;99.90;;;;;;10055185;28;20041;-66
2024/01/22 05:41:27;;;;;;;1.50;0.80;;;6.20;99.90;;;;;;10059909;28;20025;-65
2024/01/22 05:46:18;;;;;;;1.73;0.95;;;6.30;99.90;;;;;;10066982;28;20033;-66
2024/01/22 05:51:09;;;;;;;1.52;1.00;;;6.30;99.90;;;;;;10070085;28;20076;-65
2024/01/22 05:56:00;;;;;;;1.77;0.82;;;6.40;99.90;;;;;;10069550;28;20045;-64
2024/01/22 06:00:51;;;;;;;1.30;0.77;;;6.40;99.90;;;;;;10068662;28;20589;-66
2024/01/22 06:05:42;;;;;;;1.98;0.75;;;6.40;99.90;;;;;;10071905;28;20041;-65
2024/01/22 06:10:34;;;;;;;2.50;0.88;;;6.50;99.90;;;;;;10067874;28;20025;-65
2024/01/22 06:15:25;;;;;;;0.88;0.63;;;6.50;99.90;;;;;;10070005;28;20419;-65
2024/01/22 06:20:16;;;;;;;1.48;0.90;;;6.50;99.90;;;;;;10068011;28;20049;-64
2024/01/22 06:25:07;;;;;;;1.27;0.52;;;6.60;99.90;;;;;;10068060;28;20045;-65
2024/01/22 06:29:59;;;;;;;0.80;0.70;;;6.60;99.90;;;;;;10067419;28;20110;-64
2024/01/22 06:34:50;;;;;;;2.35;0.75;;;6.60;99.90;;;;;;10068279;28;20810;-66
2024/01/22 06:39:40;;;;;;;3.20;1.58;;;6.60;99.90;;;;;;10072821;28;20018;-65
2024/01/22 06:44:31;;;;;;;1.15;0.75;;;6.60;99.90;;;;;;10067097;28;20077;-65
2024/01/22 06:49:22;;;;;;;1.83;0.90;;;6.60;99.90;;;;;;10066966;28;20025;-64
2024/01/22 06:54:12;;;;;;;1.95;0.80;;;6.60;99.90;;;;;;10062288;28;20037;-65
2024/01/22 06:59:03;;;;;;;1.40;0.90;;;6.70;99.90;;;;;;10060697;28;20033;-65
2024/01/22 07:03:54;;;;;;;1.02;0.63;;;6.70;99.90;;;;;;10058649;28;20049;-64
2024/01/22 07:08:45;;;;;;;0.93;0.77;;;6.70;99.90;;;;;;10059738;28;20172;-66
2024/01/22 07:13:36;;;;;;;1.23;0.75;;;6.70;99.90;;;;;;10063934;28;20040;-65
2024/01/22 07:18:26;;;;;;;1.13;0.70;;;6.70;99.90;;;;;;10060056;28;20036;-65
2024/01/22 07:23:17;;;;;;;2.63;1.20;;;6.70;99.90;;;;;;10060884;28;20054;-66
2024/01/22 07:28:07;;;;;;;1.08;0.98;;;6.80;99.90;;;;;;10059983;28;20083;-65
2024/01/22 07:32:58;;;;;;;1.95;1.27;;;6.80;99.90;;;;;;10060889;28;20036;-66
2024/01/22 07:37:49;;;;;;;4.05;1.42;;;6.80;99.90;;;;;;10058887;28;20441;-65
2024/01/22 07:42:41;;;;;;;1.00;0.80;;;6.90;99.90;;;;;;10059437;28;20017;-65
2024/01/22 07:47:32;;;;;;;1.23;0.80;;;6.90;99.90;;;;;;10059146;28;20392;-66
2024/01/22 07:52:23;;;;;;;2.63;0.90;;;7.00;99.90;;;;;;10059013;28;20095;-65
2024/01/22 07:57:13;;;;;;;1.30;0.88;;;7.10;99.90;;;;;;10060333;28;20116;-66
2024/01/22 08:02:05;;;;;;;1.63;1.00;;;7.10;99.90;;;;;;10058782;28;20025;-65
2024/01/22 08:06:56;;;;;;;2.67;1.23;;;7.20;99.90;;;;;;10058009;28;20127;-65
2024/01/22 08:11:47;;;;;;;3.30;1.17;;;7.20;99.90;;;;;;10062937;28;20660;-65
2024/01/22 08:16:38;;;;;;;3.60;0.98;;;7.30;99.90;;;;;;10057901;28;20120;-64
2024/01/22 08:21:29;;;;;;;1.40;0.80;;;7.30;99.90;;;;;;10058526;28;20659;-64
2024/01/22 08:26:20;;;;;;;2.53;0.65;;;7.40;99.90;;;;;;10057619;28;20045;-64
2024/01/22 08:31:10;;;;;;;1.92;0.73;;;7.40;99.90;;;;;;10054807;28;20446;-65
2024/01/22 08:36:01;;;;;;;2.50;1.15;;;7.50;99.90;;;;;;10058870;28;20142;-65
2024/01/22 08:40:52;;;;;;;1.30;0.80;;;7.50;99.90;;;;;;10060091;28;20125;-65
2024/01/22 08:45:42;;;;;;;3.65;1.00;;;7.50;99.90;;;;;;10056031;28;20080;-65
2024/01/22 08:50:33;;;;;;;1.10;0.88;;;7.50;99.90;;;;;;10056577;28;20061;-65
2024/01/22 08:55:24;;;;;;;1.30;0.70;;;7.50;99.90;;;;;;10056938;28;20040;-66
2024/01/22 09:00:15;;;;;;;1.25;1.15;;;7.60;99.90;;;;;;10056339;28;20095;-66
2024/01/22 09:05:10;;;;;;;1.92;1.10;;;7.70;99.90;;;;;;10056802;28;20037;-66
2024/01/22 09:10:08;;;;;;;2.13;1.00;;;7.70;99.90;;;;;;10056302;28;20067;-64
2024/01/22 09:15:03;;;;;;;2.42;1.10;;;7.70;99.90;;;;;;10055534;28;20112;-63
2024/01/22 09:19:54;;;;;;;1.55;0.85;;;7.70;99.90;;;;;;10048827;28;20461;-63
2024/01/22 09:24:45;;;;;;;2.72;0.93;;;7.80;99.90;;;;;;10056028;28;22059;-64
2024/01/22 09:29:36;;;;;;;2.45;0.70;;;7.80;99.90;;;;;;10055318;28;20535;-65
2024/01/22 09:34:27;;;;;;;1.92;0.80;;;7.90;99.90;;;;;;10055467;28;20044;-65
2024/01/22 09:39:17;;;;;;;1.23;0.90;;;7.90;99.90;;;;;;10055305;28;20032;-65
2024/01/22 09:44:08;;;;;;;1.30;0.77;;;7.90;99.90;;;;;;10055316;28;20034;-65
2024/01/22 09:48:59;;;;;;;2.40;0.95;;;7.90;99.90;;;;;;10055479;28;20061;-64
2024/01/22 09:53:51;;;;;;;5.85;1.00;;;8.00;99.90;;;;;;10051741;28;20033;-64
2024/01/22 09:58:45;;;;;;;2.65;1.17;;;8.00;99.90;;;;;;10050318;28;20065;-65
2024/01/22 10:03:36;;;;;;;2.65;1.13;;;8.10;99.90;;;;;;10066229;28;20031;-65
2024/01/22 10:08:26;;;;;;;2.17;1.25;;;8.10;99.90;;;;;;10049231;28;20042;-65
2024/01/22 10:13:17;;;;;;;1.08;0.57;;;8.30;99.90;;;;;;10050387;28;20600;-65
2024/01/22 10:18:16;;;;;;;1.58;0.70;;;8.40;99.90;;;;;;10053383;28;20046;-65
2024/01/22 10:23:08;;;;;;;4.20;1.90;;;8.50;99.90;;;;;;10053373;28;20071;-65
2024/01/22 10:28:10;;;;;;;1.00;0.60;;;8.60;99.90;;;;;;10055376;28;20049;-64
2024/01/22 10:33:18;;;;;;;1.45;0.73;;;8.70;99.90;;;;;;10061826;28;20434;-66
2024/01/22 10:38:18;;;;;;;1.15;0.70;;;8.80;99.90;;;;;;10061827;28;20041;-66
2024/01/22 10:43:19;;;;;;;1.38;0.50;;;9.00;99.90;;;;;;10062007;28;20055;-65
2024/01/22 10:48:09;;;;;;;0.75;0.65;;;9.10;99.90;;;;;;10059895;28;20084;-66
2024/01/22 10:53:01;;;;;;;2.55;0.80;;;9.00;99.90;;;;;;10061783;28;20041;-66
2024/01/22 10:57:54;;;;;;;1.92;1.10;;;9.10;99.90;;;;;;10061951;28;20713;-67
2024/01/22 11:02:48;;;;;;;1.13;0.70;;;9.10;99.90;;;;;;10061235;28;20778;-67
2024/01/22 11:07:40;;;;;;;1.30;0.70;;;9.10;99.90;;;;;;10058952;28;20080;-64
2024/01/22 11:12:39;;;;;;;1.02;0.60;;;9.00;99.90;;;;;;10061483;28;20026;-66
2024/01/22 11:17:30;;;;;;;0.95;0.50;;;9.20;99.90;;;;;;10056488;28;20040;-66
2024/01/22 11:22:22;;;;;;;1.63;1.00;;;9.20;99.90;;;;;;10051031;28;20062;-65
2024/01/22 11:27:13;;;;;;;0.50;0.50;;;9.20;99.90;;;;;;10039832;28;20034;-66
2024/01/22 11:32:29;;;;;;;1.48;0.68;;;9.20;99.90;;;;;;10039932;28;20108;-68
2024/01/22 11:37:37;;;;;;;1.15;0.70;;;9.10;99.90;;;;;;10054568;28;20131;-64
2024/01/22 11:42:29;;;;;;;2.17;1.25;;;9.30;99.90;;;;;;10050751;28;20021;-67
2024/01/22 11:47:22;;;;;;;0.90;0.70;;;9.40;99.90;;;;;;10045146;28;20037;-64
2024/01/22 11:52:18;;;;;;;0.90;0.60;;;9.40;99.90;;;;;;10037452;28;20033;-66
2024/01/22 11:57:09;;;;;;;;;;;9.60;99.90;;;;;;10062240;28;20060;-68
2024/01/22 12:02:10;;;;;;;0.93;0.30;;;9.80;99.90;;;;;;10066286;28;19916;-66
2024/01/22 12:07:01;;;;;;;0.80;0.52;;;10.00;99.90;;;;;;10079327;28;20521;-67
2024/01/22 12:11:53;;;;;;;0.40;0.40;;;10.10;99.90;;;;;;10070423;28;20036;-66
2024/01/22 12:16:43;;;;;;;1.23;0.65;;;10.10;99.90;;;;;;10042725;28;20053;-66
2024/01/22 12:21:34;;;;;;;0.77;0.77;;;10.20;99.90;;;;;;10042116;28;20037;-65
2024/01/22 12:26:24;;;;;;;0.60;0.45;;;10.20;99.90;;;;;;10044307;28;20082;-65
2024/01/22 12:31:20;;;;;;;2.03;1.20;;;10.30;99.90;;;;;;10054698;28;20053;-65
2024/01/22 12:36:15;;;;;;;;;;;10.30;99.90;;;;;;10035633;28;20336;-66
2024/01/22 12:41:09;;;;;;;1.55;0.80;;;10.10;99.90;;;;;;10050720;28;19920;-66
2024/01/22 12:46:10;;;;;;;1.40;0.82;;;10.10;99.90;;;;;;10047349;28;20052;-66
2024/01/22 12:51:02;;;;;;;2.60;0.52;;;10.10;99.90;;;;;;10055931;28;20040;-64
2024/01/22 12:55:54;;;;;;;1.00;0.50;;;10.00;99.90;;;;;;10056493;28;20044;-65
2024/01/22 13:00:45;;;;;;;1.20;0.47;;;10.00;99.90;;;;;;10057129;28;20045;-65
2024/01/22 13:05:36;;;;;;;1.27;1.02;;;10.10;99.90;;;;;;10055482;28;20037;-65
2024/01/22 13:10:31;;;;;;;1.75;0.65;;;10.10;99.90;;;;;;10056532;28;20446;-64
2024/01/22 13:15:22;;;;;;;1.90;0.50;;;10.00;99.90;;;;;;10055996;28;20057;-65
2024/01/22 13:20:12;;;;;;;0.95;0.68;;;10.00;99.90;;;;;;10057365;28;20085;-65
2024/01/22 13:25:04;;;;;;;1.33;0.75;;;10.00;99.90;;;;;;10055250;28;20548;-65
2024/01/22 13:29:55;;;;;;;0.70;0.60;;;10.00;99.90;;;;;;10052756;28;20095;-65
2024/01/22 13:34:45;;;;;;;0.60;0.50;;;10.00;99.90;;;;;;10052202;28;20117;-63
2024/01/22 13:39:37;;;;;;;0.80;0.50;;;10.00;99.90;;;;;;10054644;28;20033;-64
2024/01/22 13:44:27;;;;;;;1.08;0.60;;;10.10;99.90;;;;;;10054242;28;20037;-65
2024/01/22 13:49:18;;;;;;;2.33;0.52;;;10.10;99.90;;;;;;10055076;28;20041;-65
2024/01/22 13:54:08;;;;;;;1.95;0.77;;;10.10;99.90;;;;;;10055080;28;20038;-64
2024/01/22 13:59:00;;;;;;;2.67;1.67;;;10.10;99.90;;;;;;10040492;28;20072;-63
2024/01/22 14:03:50;;;;;;;1.70;0.98;;;10.10;99.90;;;;;;10056761;28;20423;-65
2024/01/22 14:08:41;;;;;;;1.40;1.05;;;10.10;99.90;;;;;;10062067;28;20045;-65
2024/01/22 14:13:32;;;;;;;0.45;0.40;;;10.10;99.90;;;;;;10062595;28;20021;-64
2024/01/22 14:18:24;;;;;;;1.15;0.70;;;10.00;99.90;;;;;;10066739;28;20474;-64
2024/01/22 14:23:17;;;;;;;1.35;0.70;;;10.10;99.90;;;;;;10062721;28;20033;-65
2024/01/22 14:28:07;;;;;;;0.75;0.63;;;10.10;99.90;;;;;;10060708;28;20487;-65
2024/01/22 14:32:58;;;;;;;1.45;0.70;;;10.10;99.90;;;;;;10061628;28;20034;-65
2024/01/22 14:37:49;;;;;;;2.42;1.27;;;10.10;99.90;;;;;;10061150;28;20119;-65
2024/01/22 14:42:41;;;;;;;1.23;0.60;;;10.10;99.90;;;;;;10060683;28;20631;-64
2024/01/22 14:47:31;;;;;;;2.30;0.98;;;10.00;99.90;;;;;;10061649;28;20084;-64
2024/01/22 14:52:25;;;;;;;1.25;0.80;;;10.00;99.90;;;;;;10061448;28;20052;-65
2024/01/22 14:57:15;;;;;;;2.15;0.93;;;10.00;99.90;;;;;;10060771;28;20565;-65
2024/01/22 15:02:06;;;;;;;1.55;0.63;;;10.00;99.90;;;;;;10061510;28;20021;-66
2024/01/22 15:06:57;;;;;;;1.00;0.57;;;10.00;99.90;;;;;;10058939;28;20120;-63
2024/01/22 15:11:48;;;;;;;1.23;0.80;;;10.00;99.90;;;;;;10064109;28;20030;-63
2024/01/22 15:16:38;;;;;;;2.30;0.70;;;10.00;99.90;;;;;;10059469;28;20025;-63
2024/01/22 15:21:29;;;;;;;2.13;1.15;;;10.00;99.90;;;;;;10060525;28;20145;-63
2024/01/22 15:26:20;;;;;;;3.38;0.85;;;10.00;99.90;;;;;;10058164;28;20368;-64
2024/01/22 15:31:12;;;;;;;1.30;0.73;;;10.00;99.90;;;;;;10059879;28;20022;-61
2024/01/22 15:36:03;;;;;;;1.77;0.80;;;10.00;99.90;;;;;;10058334;28;20033;-64
2024/01/22 15:40:54;;;;;;;1.77;0.88;;;10.00;99.90;;;;;;10059096;28;20033;-63
2024/01/22 15:45:45;;;;;;;2.88;1.17;;;10.00;99.90;;;;;;10058969;28;20050;-62
2024/01/22 15:50:35;;;;;;;1.92;0.63;;;10.00;99.90;;;;;;10059415;28;20500;-65
2024/01/22 15:55:26;;;;;;;1.00;0.65;;;10.00;99.90;;;;;;10058791;28;20029;-63
2024/01/22 16:00:17;;;;;;;2.15;0.55;;;10.00;99.90;;;;;;10058793;28;20033;-63
2024/01/22 16:05:08;;;;;;;3.03;1.70;;;10.10;99.90;;;;;;10058675;28;20117;-62
2024/01/22 16:09:59;;;;;;;0.40;0.40;;;10.10;99.90;;;;;;10067399;28;20108;-61
2024/01/22 16:14:49;;;;;;;0.68;0.30;;;10.00;99.90;;;;;;10058404;28;20044;-62
2024/01/22 16:19:40;;;;;;;2.67;0.40;;;10.10;99.90;;;;;;10057686;28;20049;-62
2024/01/22 16:24:31;;;;;;;1.70;0.57;;;10.00;99.90;;;;;;10058072;28;20025;-62
2024/01/22 16:29:22;;;;;;;1.05;0.40;;;10.00;99.90;;;;;;10057502;28;20033;-63
2024/01/22 16:34:13;;;;;;;2.28;0.60;;;10.00;99.90;;;;;;10057692;28;20040;-63
2024/01/22 16:39:04;;;;;;;0.10;0.10;;;9.90;99.90;;;;;;10051785;28;20112;-64
2024/01/22 16:43:55;;;;;;;2.08;0.47;;;9.90;99.90;;;;;;10053833;28;20403;-63
2024/01/22 16:48:45;;;;;;;0.60;0.52;;;9.90;99.90;;;;;;10056473;28;20061;-65
2024/01/22 16:53:36;;;;;;;0.43;0.32;;;10.00;99.90;;;;;;10055871;28;20061;-63
2024/01/22 16:58:27;;;;;;;0.90;0.50;;;10.00;99.90;;;;;;10055953;28;20554;-65
2024/01/22 17:03:18;;;;;;;1.52;0.45;;;10.00;99.90;;;;;;10057407;28;20421;-65
2024/01/22 17:08:08;;;;;;;1.25;1.15;;;10.00;99.90;;;;;;10057622;28;20499;-64
2024/01/22 17:12:59;;;;;;;0.55;0.40;;;10.00;99.90;;;;;;10055488;28;20033;-65
2024/01/22 17:17:49;;;;;;;2.53;0.95;;;10.00;99.90;;;;;;10047818;28;20029;-64
2024/01/22 17:22:40;;;;;;;0.75;0.50;;;10.00;99.90;;;;;;10056466;28;20060;-65
2024/01/22 17:27:31;;;;;;;1.05;0.47;;;10.00;99.90;;;;;;10055324;28;20045;-64
2024/01/22 17:32:21;;;;;;;2.22;0.68;;;10.00;99.90;;;;;;10055937;28;20498;-64
2024/01/22 17:37:12;;;;;;;1.63;0.85;;;10.00;99.90;;;;;;10054561;28;20029;-63
2024/01/22 17:42:03;;;;;;;1.40;1.05;;;10.00;99.90;;;;;;10053364;28;20481;-65
2024/01/22 17:46:53;;;;;;;1.60;0.70;;;10.00;99.90;;;;;;10059278;28;20436;-65
2024/01/22 17:51:44;;;;;;;1.23;0.70;;;10.00;99.90;;;;;;10055388;28;20050;-65
2024/01/22 17:56:37;;;;;;;1.92;0.85;;;10.00;99.90;;;;;;10062371;28;20022;-65
2024/01/22 18:01:28;;;;;;;1.88;0.93;;;10.00;99.90;;;;;;10055408;28;20495;-65
2024/01/22 18:06:19;;;;;;;3.08;0.80;;;10.00;99.90;;;;;;10055977;28;20120;-64
2024/01/22 18:11:13;;;;;;;2.58;0.80;;;10.00;99.90;;;;;;10055126;28;20026;-64
2024/01/22 18:16:04;;;;;;;1.05;0.60;;;10.00;99.90;;;;;;10046881;28;20081;-63
2024/01/22 18:20:55;;;;;;;1.35;0.65;;;10.00;99.90;;;;;;10052110;28;20529;-64
2024/01/22 18:25:45;;;;;;;1.33;1.00;;;10.10;99.90;;;;;;10044397;28;20050;-63
2024/01/22 18:30:39;;;;;;;2.17;0.70;;;10.10;99.90;;;;;;10053336;28;20484;-67
2024/01/22 18:35:29;;;;;;;1.55;1.00;;;10.10;99.90;;;;;;10051637;28;20017;-63
2024/01/22 18:40:23;;;;;;;1.58;0.90;;;10.10;99.90;;;;;;10051896;28;20042;-64
2024/01/22 18:45:14;;;;;;;3.17;0.75;;;10.10;99.90;;;;;;10053887;28;20060;-63
2024/01/22 18:50:05;;;;;;;2.60;0.80;;;10.10;99.90;;;;;;10058276;28;20017;-65
2024/01/22 18:54:56;;;;;;;2.72;0.77;;;10.10;99.90;;;;;;10060575;28;20041;-66
2024/01/22 18:59:47;;;;;;;2.70;0.98;;;10.10;99.90;;;;;;10062655;28;20025;-64
2024/01/22 19:04:37;;;;;;;2.30;0.98;;;10.10;99.90;;;;;;10061190;28;20025;-64
2024/01/22 19:09:28;;;;;;;3.28;0.80;;;10.10;99.90;;;;;;10060552;28;20641;-66
2024/01/22 19:14:18;;;;;;;0.93;0.77;;;10.10;99.90;;;;;;10060526;28;20590;-64
2024/01/22 19:19:09;;;;;;;2.58;1.00;;;10.00;99.90;;;;;;10060471;28;20021;-65
2024/01/22 19:24:00;;;;;;;5.50;1.40;;;10.10;99.90;;;;;;10060040;28;20045;-64
2024/01/22 19:28:50;;;;;;;1.63;1.30;;;10.10;99.90;;;;;;10059133;28;20136;-65
2024/01/22 19:33:41;;;;;;;2.15;1.23;;;10.10;99.90;;;;;;10059833;28;20100;-64
2024/01/22 19:38:32;;;;;;;1.20;1.08;;;10.10;99.90;;;;;;10056555;28;20030;-65
2024/01/22 19:43:23;;;;;;;2.80;1.20;;;10.10;99.90;;;;;;10058630;28;20030;-64
2024/01/22 19:48:14;;;;;;;1.73;0.82;;;10.10;99.90;;;;;;10058089;28;20527;-64
2024/01/22 19:53:05;;;;;;;2.60;1.20;;;10.10;99.90;;;;;;10057473;28;20182;-64
2024/01/22 19:57:56;;;;;;;2.10;1.30;;;10.10;99.90;;;;;;10057978;28;20022;-63
2024/01/22 20:02:46;;;;;;;5.13;1.60;;;10.10;99.90;;;;;;10058327;28;20544;-64
2024/01/22 20:07:37;;;;;;;3.20;1.90;;;10.10;99.90;;;;;;10058219;28;20041;-64
2024/01/22 20:12:28;;;;;;;2.08;1.35;;;10.10;99.90;;;;;;10058468;28;20079;-65
2024/01/22 20:17:18;;;;;;;2.55;1.25;;;10.00;99.90;;;;;;10057181;28;20450;-66
2024/01/22 20:22:09;;;;;;;4.20;1.70;;;10.00;99.90;;;;;;10057785;28;20081;-68
2024/01/22 20:27:00;;;;;;;4.90;2.70;;;10.00;99.90;;;;;;10054011;28;20068;-67
2024/01/22 20:31:50;;;;;;;10.02;3.67;;;10.00;99.90;;;;;;10069666;28;20034;-67
2024/01/22 20:36:41;;;;;;;7.68;3.42;;;10.00;99.90;;;;;;10060699;28;20509;-68
2024/01/22 20:41:32;;;;;;;5.43;2.00;;;9.90;99.90;;;;;;10056303;28;20396;-66
2024/01/22 20:46:23;;;;;;;5.95;1.38;;;9.90;99.90;;;;;;10032884;28;20041;-69
2024/01/22 20:51:14;;;;;;;2.22;1.27;;;9.90;99.90;;;;;;10033387;28;20159;-70
2024/01/22 20:56:04;;;;;;;2.97;1.00;;;9.90;99.90;;;;;;10032896;28;20113;-71
2024/01/22 21:00:55;;;;;;;1.20;0.80;;;9.90;99.90;;;;;;10050928;28;20036;-69
2024/01/22 21:05:46;;;;;;;2.42;0.70;;;9.90;99.90;;;;;;10047189;28;20069;-69
2024/01/22 21:10:37;;;;;;;1.98;0.90;;;9.90;99.90;;;;;;10041935;28;20075;-68
2024/01/22 21:15:29;;;;;;;2.90;0.80;;;10.00;99.90;;;;;;10041169;28;20497;-68
2024/01/22 21:20:21;;;;;;;1.98;0.60;;;10.00;99.90;;;;;;10048548;28;20191;-69
2024/01/22 21:25:12;;;;;;;1.05;0.57;;;10.00;99.90;;;;;;10038757;28;20471;-70
2024/01/22 21:30:04;;;;;;;1.77;0.80;;;9.90;99.90;;;;;;10043173;28;20052;-69
2024/01/22 21:34:54;;;;;;;1.63;0.80;;;9.80;99.90;;;;;;10048386;28;20105;-69
2024/01/22 21:39:45;;;;;;;1.10;0.80;;;9.80;99.90;;;;;;10044108;28;20120;-69
2024/01/22 21:44:36;;;;;;;0.90;0.45;;;9.80;99.90;;;;;;10048435;28;20527;-68
2024/01/22 21:49:27;;;;;;;1.25;0.65;;;9.80;99.90;;;;;;10039587;28;20049;-67
2024/01/22 21:54:17;;;;;;;0.93;0.60;;;9.80;99.90;;;;;;10028740;28;20029;-67
2024/01/22 21:59:10;;;;;;;1.00;0.55;;;9.80;99.90;;;;;;10035849;28;20046;-67
2024/01/22 22:04:02;;;;;;;2.28;0.77;;;9.90;99.90;;;;;;10044882;28;20025;-70
2024/01/22 22:08:53;;;;;;;1.27;0.50;;;9.80;99.90;;;;;;10050842;28;20033;-67
2024/01/22 22:13:43;;;;;;;0.50;0.45;;;9.80;99.90;;;;;;10043347;28;20033;-68
2024/01/22 22:18:34;;;;;;;2.22;1.08;;;9.90;99.90;;;;;;10046017;28;20120;-71
2024/01/22 22:23:26;;;;;;;0.60;0.57;;;9.90;99.90;;;;;;10038083;28;20124;-68
2024/01/22 22:28:17;;;;;;;0.88;0.75;;;9.90;99.90;;;;;;10058976;28;20045;-69
2024/01/22 22:33:08;;;;;;;1.45;0.50;;;10.00;99.90;;;;;;10058766;28;20795;-67
2024/01/22 22:37:59;;;;;;;2.10;1.15;;;9.90;99.90;;;;;;10060898;28;20033;-68
2024/01/22 22:42:50;;;;;;;0.55;0.47;;;10.00;99.90;;;;;;10058917;28;20021;-68
2024/01/22 22:47:41;;;;;;;1.83;0.50;;;10.00;99.90;;;;;;10053019;28;20124;-69
2024/01/22 22:52:31;;;;;;;1.67;0.85;;;10.00;99.90;;;;;;10053483;28;20120;-67
2024/01/22 22:57:22;;;;;;;2.95;0.68;;;10.00;99.90;;;;;;10054018;28;20094;-66
2024/01/22 23:02:13;;;;;;;2.15;0.75;;;9.90;99.90;;;;;;10059282;28;20380;-66
2024/01/22 23:07:03;;;;;;;3.10;0.68;;;10.00;99.90;;;;;;10057282;28;20095;-68
2024/01/22 23:11:54;;;;;;;1.30;0.63;;;10.00;99.90;;;;;;10062850;28;20484;-66
2024/01/22 23:16:45;;;;;;;2.53;0.63;;;9.90;99.90;;;;;;10056122;28;20033;-67
2024/01/22 23:21:35;;;;;;;1.40;0.70;;;9.90;99.90;;;;;;10054640;28;20092;-67
2024/01/22 23:26:26;;;;;;;2.30;0.88;;;9.90;99.90;;;;;;10059460;28;20506;-67
2024/01/22 23:31:17;;;;;;;2.92;1.00;;;9.90;99.90;;;;;;10059197;28;20083;-66
2024/01/22 23:36:10;;;;;;;2.72;0.70;;;10.00;99.90;;;;;;10058010;28;20522;-66
2024/01/22 23:41:00;;;;;;;1.45;0.68;;;9.90;99.90;;;;;;10059937;28;20017;-66
2024/01/22 23:45:51;;;;;;;1.98;0.50;;;10.00;99.90;;;;;;10058744;28;20534;-68
2024/01/22 23:50:42;;;;;;;1.20;0.50;;;10.00;99.90;;;;;;10058774;28;20042;-65
2024/01/22 23:55:33;;;;;;;3.22;0.65;;;10.00;99.90;;;;;;10058588;28;20041;-66
